Ana Sayfa
METAR-TAF:

METAR-TAF

Havaalanları :

Eskişehir Hava Üssü

Eskişehir, Türkiye

Enlem: 39-47N, Boylam: 030-34E, yükseklik: 785 m

Güncel hava durumu gözlemi

Rapor saat 12:04 UTC de 16 saat ve 6 dakika önce yapıldı.
Rüzgar batıdan 5 kt
Sıcaklık 2°C
Nem 93%
Basınç 1013 hPa
Görüş mesafesi: 6000 m
1000 ft yükseklikte az bulutlu
3000 ft yükseklikte parçalı çok bulutlu
10000 ft yükseklikte parçalı çok bulutlu

METAR: LTBI 121204Z 28005KT 6000 FEW010 BKN030 BKN100 02/01 Q1013 RESN NOSIG RMK RWY08 30009KT

Saat: 07:10 (04:10 UTC)

Tahmin

Rapor saat 01:40 UTC de 2 saat ve 30 dakika önce yapıldı.
Ayın 13'si saat 03 UTC'den ayın 13'si saat 12 UTC'ye kadar geçerli Tahmin
Rüzgar değişken yönden 2 kt
Görüş mesafesi 10 km veya daha fazla
1500 m altında bulut yok ve kümülonimbus yok

TAF: LTBI 130140Z 1303/1312 VRB02KT CAVOK

4.000'den fazla havaalanı için hava durumu gözlemleri ve tahminleri (METAR ve TAF raporları).

Kullanılabilir istasyonlar harita üzerinde sarı ve kırmızı noktalarla gösterilir.

İstasyonun adını görmek için fareyi noktanın üzerinde gezdirin.

Sonrasında hava gözlem ve tahminlerini görmek için tıklayın.

Haritayı değiştirmek için: yaklaştırmak için siyah artı işaretli yeşil düğmeye ve uzaklaştırmak için de eksi işaretli düğmeye hızla tıklayın; bitişik haritalar için yeşil okları kullanın.


METAR-TAF: